createdAt,value
2023-10-09T00:00:52.141Z,1.60
2023-10-09T00:03:56.061Z,1.70
2023-10-09T00:07:00.844Z,1.88
2023-10-09T00:10:12.972Z,1.90
2023-10-09T00:13:15.565Z,1.70
2023-10-09T00:16:47.105Z,1.70
2023-10-09T00:19:52.820Z,1.98
2023-10-09T00:22:57.960Z,2.10
2023-10-09T00:26:09.801Z,2.17
2023-10-09T00:29:17.654Z,1.90
2023-10-09T00:32:23.987Z,2.03
2023-10-09T00:35:38.258Z,2.00
2023-10-09T00:38:46.550Z,1.73
2023-10-09T00:41:49.388Z,1.75
2023-10-09T00:44:52.377Z,1.88
2023-10-09T00:48:00.462Z,1.80
2023-10-09T00:51:14.156Z,2.00
2023-10-09T00:54:20.926Z,1.80
2023-10-09T00:57:25.831Z,1.70
2023-10-09T01:00:34.515Z,1.98
2023-10-09T01:03:41.859Z,1.90
2023-10-09T01:07:06.971Z,1.80
2023-10-09T01:10:11.018Z,1.85
2023-10-09T01:13:14.336Z,1.90
2023-10-09T01:16:18.504Z,1.80
2023-10-09T01:19:25.557Z,1.90
2023-10-09T01:22:28.659Z,2.90
2023-10-09T01:25:43.161Z,2.65
2023-10-09T01:28:47.270Z,2.70
2023-10-09T01:31:58.151Z,2.90
2023-10-09T01:35:01.250Z,2.83
2023-10-09T01:38:11.456Z,2.78
2023-10-09T01:41:20.892Z,3.55
2023-10-09T01:44:23.796Z,3.00
2023-10-09T01:47:32.972Z,2.65
2023-10-09T01:50:36.714Z,2.40
2023-10-09T01:53:39.618Z,2.50
2023-10-09T01:56:47.291Z,2.45
2023-10-09T01:59:51.549Z,2.38
2023-10-09T02:02:55.237Z,2.38
2023-10-09T02:06:01.351Z,2.10
2023-10-09T02:09:07.714Z,2.13
2023-10-09T02:12:10.623Z,2.05
2023-10-09T02:15:17.042Z,2.30
2023-10-09T02:18:41.767Z,2.47
2023-10-09T02:24:50.211Z,2.20
2023-10-09T02:27:55.710Z,2.25
2023-10-09T02:31:02.036Z,2.20
2023-10-09T02:34:08.712Z,2.08
2023-10-09T02:37:31.469Z,2.17
2023-10-09T02:40:42.821Z,2.17
2023-10-09T02:43:49.079Z,2.17
2023-10-09T02:46:51.964Z,2.28
2023-10-09T02:50:01.821Z,2.13
2023-10-09T02:53:10.343Z,2.22
2023-10-09T02:56:13.896Z,2.50
2023-10-09T02:59:16.844Z,2.22
2023-10-09T03:02:20.528Z,2.63
2023-10-09T03:05:25.244Z,2.70
2023-10-09T03:08:28.202Z,2.60
2023-10-09T03:11:33.477Z,2.97
2023-10-09T03:14:42.439Z,2.40
2023-10-09T03:17:46.104Z,2.85
2023-10-09T03:20:49.013Z,2.20
2023-10-09T03:23:51.831Z,2.70
2023-10-09T03:26:57.112Z,2.75
2023-10-09T03:30:01.058Z,2.08
2023-10-09T03:33:05.516Z,2.30
2023-10-09T03:36:11.972Z,2.75
2023-10-09T03:39:34.663Z,2.38
2023-10-09T03:42:38.210Z,2.42
2023-10-09T03:46:01.875Z,2.13
2023-10-09T03:49:12.746Z,2.42
2023-10-09T03:52:18.605Z,2.35
2023-10-09T03:55:23.266Z,2.33
2023-10-09T03:58:26.704Z,2.40
2023-10-09T04:01:29.916Z,2.65
2023-10-09T04:04:34.829Z,2.70
2023-10-09T04:11:07.268Z,2.38
2023-10-09T04:14:23.021Z,2.67
2023-10-09T04:17:25.941Z,2.30
2023-10-09T04:20:31.737Z,2.63
2023-10-09T04:23:57.796Z,2.70
2023-10-09T04:27:00.388Z,2.20
2023-10-09T04:30:03.023Z,2.25
2023-10-09T04:33:30.348Z,2.20
2023-10-09T04:36:47.277Z,2.75
2023-10-09T04:39:51.308Z,2.10
2023-10-09T04:43:00.171Z,2.30
2023-10-09T04:46:13.452Z,2.60
2023-10-09T04:49:28.598Z,2.13
2023-10-09T04:52:31.277Z,2.28
2023-10-09T04:55:39.847Z,2.33
2023-10-09T04:58:44.699Z,2.10
2023-10-09T05:01:59.052Z,2.42
2023-10-09T05:05:18.084Z,2.45
2023-10-09T05:08:21.008Z,2.33
2023-10-09T05:11:54.392Z,2.60
2023-10-09T05:15:14.669Z,2.05
2023-10-09T05:18:17.560Z,2.70
2023-10-09T05:21:32.876Z,3.92
2023-10-09T05:24:47.530Z,2.75
2023-10-09T05:27:53.094Z,2.30
2023-10-09T05:31:09.550Z,2.55
2023-10-09T05:34:13.598Z,2.60
2023-10-09T05:40:32.193Z,2.50
2023-10-09T05:43:53.049Z,3.35
2023-10-09T05:47:14.630Z,3.10
2023-10-09T05:50:18.184Z,2.47
2023-10-09T05:53:56.039Z,2.40
2023-10-09T05:57:21.954Z,2.70
2023-10-09T06:00:44.389Z,2.53
2023-10-09T06:03:50.294Z,2.83
2023-10-09T06:07:12.123Z,2.72
2023-10-09T06:10:33.983Z,2.58
2023-10-09T06:13:39.035Z,2.30
2023-10-09T06:16:44.050Z,2.65
2023-10-09T06:19:50.051Z,3.05
2023-10-09T06:22:58.532Z,2.70
2023-10-09T06:26:22.068Z,2.55
2023-10-09T06:29:36.629Z,2.75
2023-10-09T06:32:50.745Z,2.78
2023-10-09T06:35:55.988Z,2.83
2023-10-09T06:39:17.783Z,2.67
2023-10-09T06:42:45.804Z,2.55
2023-10-09T06:45:59.891Z,2.70
2023-10-09T06:49:24.189Z,2.17
2023-10-09T06:52:46.952Z,3.40
2023-10-09T06:55:50.107Z,2.63
2023-10-09T06:58:56.302Z,2.80
2023-10-09T07:02:10.870Z,2.28
2023-10-09T07:05:18.838Z,3.67
2023-10-09T07:08:33.459Z,3.63
2023-10-09T07:11:50.269Z,1.83
2023-10-09T07:15:08.600Z,2.72
2023-10-09T07:18:21.193Z,2.50
2023-10-09T07:21:29.337Z,2.20
2023-10-09T07:25:01.434Z,2.80
2023-10-09T07:28:19.424Z,3.20
2023-10-09T07:31:27.781Z,2.60
2023-10-09T07:34:32.270Z,3.55
2023-10-09T07:37:39.166Z,2.08
2023-10-09T07:41:20.547Z,1.80
2023-10-09T07:44:40.304Z,1.92
2023-10-09T07:48:01.207Z,1.80
2023-10-09T07:51:06.666Z,1.70
2023-10-09T07:54:09.891Z,2.17
2023-10-09T07:57:18.885Z,1.60
2023-10-09T08:00:37.514Z,1.65
2023-10-09T08:03:40.456Z,1.67
2023-10-09T08:07:04.348Z,2.17
2023-10-09T08:10:15.388Z,1.80
2023-10-09T08:13:41.118Z,3.15
2023-10-09T08:16:44.271Z,3.08
2023-10-09T08:19:54.883Z,1.80
2023-10-09T08:22:57.747Z,1.85
2023-10-09T08:26:15.743Z,2.00
2023-10-09T08:29:19.043Z,1.90
2023-10-09T08:35:49.370Z,2.00
2023-10-09T08:38:59.384Z,2.00
2023-10-09T08:42:06.391Z,1.90
2023-10-09T08:45:10.301Z,1.90
2023-10-09T08:48:19.400Z,1.60
2023-10-09T08:51:24.250Z,1.80
2023-10-09T08:54:27.046Z,1.70
2023-10-09T08:57:32.026Z,2.10
2023-10-09T09:00:34.613Z,1.90
2023-10-09T09:03:42.323Z,2.10
2023-10-09T09:06:45.339Z,2.00
2023-10-09T09:10:20.940Z,1.80
2023-10-09T09:13:23.737Z,1.70
2023-10-09T09:16:33.241Z,1.95
2023-10-09T09:19:39.334Z,1.90
2023-10-09T09:22:54.331Z,1.70
2023-10-09T09:26:11.407Z,2.00
2023-10-09T09:29:19.123Z,1.80
2023-10-09T09:32:39.712Z,1.73
2023-10-09T09:35:58.617Z,1.73
2023-10-09T09:39:20.508Z,2.10
2023-10-09T09:42:28.748Z,1.90
2023-10-09T09:45:37.056Z,1.92
2023-10-09T09:48:46.331Z,1.70
2023-10-09T09:51:52.340Z,1.92
2023-10-09T09:54:59.800Z,2.15
2023-10-09T09:58:09.397Z,2.00
2023-10-09T10:01:18.308Z,2.05
2023-10-09T10:04:23.142Z,1.90
2023-10-09T10:07:30.323Z,2.08
2023-10-09T10:10:48.973Z,2.20
2023-10-09T10:13:51.798Z,2.40
2023-10-09T10:17:21.520Z,2.25
2023-10-09T10:20:24.436Z,2.45
2023-10-09T10:23:33.639Z,3.00
2023-10-09T10:26:37.390Z,2.58
2023-10-09T10:33:18.947Z,2.47
2023-10-09T10:36:26.320Z,2.80
2023-10-09T10:39:44.023Z,2.22
2023-10-09T10:43:08.336Z,2.13
2023-10-09T10:46:31.401Z,2.20
2023-10-09T10:49:38.237Z,1.80
2023-10-09T10:52:43.897Z,1.90
2023-10-09T10:56:27.818Z,1.65
2023-10-09T10:59:42.973Z,1.98
2023-10-09T11:02:49.516Z,2.55
2023-10-09T11:05:53.205Z,2.45
2023-10-09T11:08:58.163Z,2.10
2023-10-09T11:12:36.126Z,2.03
2023-10-09T11:15:58.998Z,1.90
2023-10-09T11:19:13.727Z,2.22
2023-10-09T11:22:37.577Z,2.20
2023-10-09T11:25:52.366Z,2.65
2023-10-09T11:29:24.827Z,2.47
2023-10-09T11:32:33.745Z,2.28
2023-10-09T11:35:37.213Z,2.10
2023-10-09T11:38:40.254Z,2.50
2023-10-09T11:41:43.966Z,2.30
2023-10-09T11:44:47.364Z,2.22
2023-10-09T11:48:20.856Z,2.13
2023-10-09T11:51:23.466Z,2.35
2023-10-09T11:54:34.372Z,2.30
2023-10-09T11:57:37.122Z,2.40
2023-10-09T12:00:48.544Z,2.03
2023-10-09T12:03:52.416Z,2.17
2023-10-09T12:07:07.452Z,2.90
2023-10-09T12:10:13.968Z,2.25
2023-10-09T12:13:17.158Z,2.35
2023-10-09T12:16:20.223Z,2.17
2023-10-09T12:19:24.638Z,2.72
2023-10-09T12:22:28.711Z,2.28
2023-10-09T12:28:35.802Z,2.00
2023-10-09T12:31:38.621Z,2.20
2023-10-09T12:34:43.609Z,2.20
2023-10-09T12:37:47.349Z,2.00
2023-10-09T12:40:53.629Z,2.40
2023-10-09T12:44:00.081Z,3.47
2023-10-09T12:47:05.993Z,2.40
2023-10-09T12:50:15.012Z,2.40
2023-10-09T12:53:20.070Z,2.10
2023-10-09T12:56:23.961Z,2.92
2023-10-09T12:59:26.854Z,2.50
2023-10-09T13:02:29.955Z,2.78
2023-10-09T13:05:33.656Z,2.83
2023-10-09T13:08:36.484Z,2.90
2023-10-09T13:11:41.785Z,2.78
2023-10-09T13:14:44.346Z,2.67
2023-10-09T13:17:47.245Z,2.20
2023-10-09T13:20:50.143Z,2.22
2023-10-09T13:23:55.828Z,2.20
2023-10-09T13:27:05.708Z,2.38
2023-10-09T13:30:10.438Z,2.60
2023-10-09T13:36:28.259Z,3.00
2023-10-09T13:39:38.748Z,4.03
2023-10-09T13:42:42.806Z,2.63
2023-10-09T13:45:51.215Z,4.10
2023-10-09T13:48:54.441Z,3.88
2023-10-09T13:51:58.118Z,2.95
2023-10-09T13:55:16.393Z,2.53
2023-10-09T13:58:22.190Z,2.40
2023-10-09T14:01:33.730Z,2.50
2023-10-09T14:04:37.817Z,2.60
2023-10-09T14:07:42.185Z,2.75
2023-10-09T14:10:49.656Z,2.85
2023-10-09T14:14:06.106Z,2.80
2023-10-09T14:17:21.233Z,2.50
2023-10-09T14:20:32.977Z,2.70
2023-10-09T14:23:36.436Z,5.18
2023-10-09T14:26:39.247Z,3.90
2023-10-09T14:29:43.880Z,3.10
2023-10-09T14:32:52.765Z,2.92
2023-10-09T14:35:59.415Z,3.15
2023-10-09T14:39:02.528Z,5.22
2023-10-09T14:42:10.810Z,3.80
2023-10-09T14:45:17.704Z,3.10
2023-10-09T14:48:27.110Z,2.97
2023-10-09T14:51:30.764Z,3.35
2023-10-09T14:54:33.671Z,3.15
2023-10-09T14:57:36.193Z,3.17
2023-10-09T15:00:47.762Z,3.45
2023-10-09T15:03:54.274Z,8.68
2023-10-09T15:06:58.282Z,3.35
2023-10-09T15:10:05.160Z,4.10
2023-10-09T15:13:07.723Z,3.80
2023-10-09T15:16:12.322Z,3.92
2023-10-09T15:19:17.643Z,3.83
2023-10-09T15:22:22.613Z,3.80
2023-10-09T15:25:25.553Z,3.95
2023-10-09T15:28:33.644Z,4.28
2023-10-09T15:31:41.504Z,3.90
2023-10-09T15:34:45.340Z,4.43
2023-10-09T15:37:48.319Z,3.70
2023-10-09T15:40:51.254Z,4.53
2023-10-09T15:43:53.895Z,3.60
2023-10-09T15:47:01.347Z,3.63
2023-10-09T15:50:05.263Z,3.45
2023-10-09T15:53:11.541Z,3.97
2023-10-09T15:56:15.179Z,3.58
2023-10-09T15:59:18.245Z,26.45
2023-10-09T16:02:21.901Z,8.13
2023-10-09T16:05:27.107Z,4.35
2023-10-09T16:08:32.913Z,4.55
2023-10-09T16:11:35.555Z,5.05
2023-10-09T16:14:38.924Z,4.97
2023-10-09T16:17:45.064Z,4.95
2023-10-09T16:20:48.671Z,5.57
2023-10-09T16:23:53.069Z,4.35
2023-10-09T16:26:56.489Z,4.82
2023-10-09T16:29:59.327Z,4.18
2023-10-09T16:33:06.574Z,3.88
2023-10-09T16:36:10.579Z,4.38
2023-10-09T16:39:19.967Z,5.45
2023-10-09T16:42:26.136Z,4.75
2023-10-09T16:45:28.905Z,5.00
2023-10-09T16:48:31.730Z,4.88
2023-10-09T16:51:34.346Z,4.93
2023-10-09T16:54:38.212Z,6.60
2023-10-09T16:57:42.696Z,5.88
2023-10-09T17:00:48.080Z,6.32
2023-10-09T17:03:56.421Z,7.38
2023-10-09T17:07:06.337Z,6.03
2023-10-09T17:10:16.178Z,5.90
2023-10-09T17:13:22.376Z,7.30
2023-10-09T17:16:26.386Z,5.50
2023-10-09T17:19:31.164Z,5.75
2023-10-09T17:22:34.672Z,6.22
2023-10-09T17:25:45.761Z,9.43
2023-10-09T17:28:50.364Z,5.78
2023-10-09T17:31:54.368Z,5.10
2023-10-09T17:34:58.894Z,5.05
2023-10-09T17:38:05.734Z,5.30
2023-10-09T17:41:12.732Z,5.70
2023-10-09T17:44:19.610Z,5.57
2023-10-09T17:47:23.194Z,4.78
2023-10-09T17:50:27.768Z,6.53
2023-10-09T17:53:31.824Z,5.35
2023-10-09T17:56:39.132Z,8.35
2023-10-09T17:59:45.434Z,4.40
2023-10-09T18:02:50.501Z,4.75
2023-10-09T18:05:55.848Z,5.97
2023-10-09T18:09:00.714Z,5.60
2023-10-09T18:12:09.020Z,5.32
2023-10-09T18:15:15.944Z,5.57
2023-10-09T18:18:21.794Z,4.95
2023-10-09T18:21:26.668Z,5.10
2023-10-09T18:24:31.293Z,5.22
2023-10-09T18:27:36.302Z,5.03
2023-10-09T18:33:56.476Z,4.90
2023-10-09T18:37:01.124Z,5.68
2023-10-09T18:40:08.997Z,6.20
2023-10-09T18:43:16.052Z,5.75
2023-10-09T18:46:23.952Z,6.10
2023-10-09T18:49:30.240Z,6.97
2023-10-09T18:52:34.840Z,7.22
2023-10-09T18:55:39.097Z,6.70
2023-10-09T18:58:45.692Z,7.03
2023-10-09T19:01:50.827Z,7.07
2023-10-09T19:05:16.549Z,7.30
2023-10-09T19:08:22.488Z,7.93
2023-10-09T19:11:28.852Z,7.22
2023-10-09T19:14:32.830Z,7.80
2023-10-09T19:17:36.836Z,7.88
2023-10-09T19:20:44.446Z,8.23
2023-10-09T19:23:49.046Z,7.47
2023-10-09T19:26:53.082Z,7.25
2023-10-09T19:29:58.592Z,8.00
2023-10-09T19:33:07.677Z,8.68
2023-10-09T19:36:15.845Z,9.13
2023-10-09T19:39:21.462Z,8.95
2023-10-09T19:42:26.223Z,7.68
2023-10-09T19:45:31.675Z,8.50
2023-10-09T19:48:37.701Z,7.30
2023-10-09T19:51:42.822Z,6.80
2023-10-09T19:54:47.034Z,7.90
2023-10-09T19:57:50.250Z,7.53
2023-10-09T20:00:56.877Z,7.53
2023-10-09T20:04:00.202Z,8.07
2023-10-09T20:07:03.467Z,8.15
2023-10-09T20:10:08.148Z,8.82
2023-10-09T20:13:13.330Z,8.02
2023-10-09T20:16:18.776Z,8.57
2023-10-09T20:19:22.445Z,7.97
2023-10-09T20:22:25.559Z,8.43
2023-10-09T20:25:31.502Z,7.80
2023-10-09T20:28:38.182Z,8.25
2023-10-09T20:31:46.082Z,5.75
2023-10-09T20:34:50.735Z,5.32
2023-10-09T20:38:02.999Z,5.60
2023-10-09T20:41:09.123Z,5.18
2023-10-09T20:44:13.868Z,4.55
2023-10-09T20:47:16.961Z,5.07
2023-10-09T20:50:19.998Z,5.25
2023-10-09T20:53:22.961Z,5.00
2023-10-09T20:56:27.654Z,5.32
2023-10-09T20:59:30.600Z,5.32
2023-10-09T21:02:33.846Z,5.15
2023-10-09T21:05:38.204Z,4.88
2023-10-09T21:08:41.838Z,4.38
2023-10-09T21:11:45.676Z,4.30
2023-10-09T21:14:49.624Z,4.60
2023-10-09T21:17:53.586Z,3.80
2023-10-09T21:20:56.542Z,4.30
2023-10-09T21:23:59.098Z,4.15
2023-10-09T21:27:01.852Z,3.88
2023-10-09T21:30:05.928Z,4.00
2023-10-09T21:33:08.796Z,3.78
2023-10-09T21:36:11.979Z,4.38
2023-10-09T21:39:18.953Z,3.47
2023-10-09T21:42:21.850Z,3.60
2023-10-09T21:45:26.052Z,3.65
2023-10-09T21:48:29.096Z,4.20
2023-10-09T21:51:31.922Z,4.13
2023-10-09T21:54:34.739Z,4.07
2023-10-09T21:57:38.960Z,4.00
2023-10-09T22:00:47.959Z,3.95
2023-10-09T22:03:50.827Z,4.22
2023-10-09T22:06:53.801Z,3.70
2023-10-09T22:09:56.616Z,3.70
2023-10-09T22:12:59.773Z,3.30
2023-10-09T22:16:02.515Z,4.07
2023-10-09T22:19:14.825Z,3.42
2023-10-09T22:22:23.721Z,3.78
2023-10-09T22:25:26.994Z,3.72
2023-10-09T22:28:36.346Z,3.95
2023-10-09T22:31:40.415Z,4.28
2023-10-09T22:34:43.862Z,3.70
2023-10-09T22:37:46.862Z,3.90
2023-10-09T22:40:50.261Z,4.40
2023-10-09T22:43:55.463Z,4.10
2023-10-09T22:46:58.414Z,3.90
2023-10-09T22:50:18.827Z,4.45
2023-10-09T22:53:34.223Z,4.15
2023-10-09T22:56:38.403Z,3.78
2023-10-09T22:59:45.931Z,3.70
2023-10-09T23:02:58.114Z,4.80
2023-10-09T23:06:12.949Z,4.32
2023-10-09T23:09:17.089Z,4.07
2023-10-09T23:12:24.275Z,4.28
2023-10-09T23:15:36.705Z,4.53
2023-10-09T23:19:05.689Z,5.93
2023-10-09T23:22:09.934Z,4.00
2023-10-09T23:25:18.902Z,4.10
2023-10-09T23:28:40.238Z,4.25
2023-10-09T23:31:58.342Z,4.47
2023-10-09T23:35:00.974Z,4.15
2023-10-09T23:38:19.240Z,4.05
2023-10-09T23:41:22.904Z,4.97
2023-10-09T23:44:35.883Z,4.82
2023-10-09T23:47:42.489Z,4.88
2023-10-09T23:50:45.671Z,4.60
2023-10-09T23:53:54.018Z,4.30
2023-10-09T23:57:00.574Z,4.22
